Time;durP1;ratioP1;P1;durP2;ratioP2;P2;SDS_P1;SDS_P2;PMS_P1;PMS_P2;Temp;Humidity;BMP_temperature;BMP_pressure;BME280_temperature;BME280_humidity;BME280_pressure;Samples;Min_cycle;Max_cycle;Signal;HPM_P1;HPM_P2
2022/11/23 03:02:14;;;;;;;11.40;10.60;;;3.10;99.90;;;;;;5167329;23;21057;-79
2022/11/23 03:04:41;;;;;;;10.80;10.10;;;3.10;99.90;;;;;;4897009;29;20204;-79
2022/11/23 03:07:08;;;;;;;11.10;10.40;;;3.10;99.90;;;;;;4896193;29;20545;-79
2022/11/23 03:09:35;;;;;;;11.83;11.03;;;3.00;99.90;;;;;;4895921;29;20211;-80
2022/11/23 03:12:03;;;;;;;12.67;11.60;;;2.90;99.90;;;;;;4882571;29;20301;-78
2022/11/23 03:14:30;;;;;;;12.20;11.30;;;2.70;99.90;;;;;;4879844;29;20209;-79
2022/11/23 03:16:58;;;;;;;12.60;11.70;;;2.70;99.90;;;;;;4873852;29;20208;-80
2022/11/23 03:19:26;;;;;;;13.43;12.53;;;2.60;99.90;;;;;;4869931;29;20703;-79
2022/11/23 03:21:54;;;;;;;12.20;11.40;;;2.60;99.90;;;;;;4870040;29;20481;-79
2022/11/23 03:24:21;;;;;;;13.03;12.10;;;2.60;99.90;;;;;;4876293;29;20450;-80
2022/11/23 03:26:50;;;;;;;12.80;11.90;;;2.50;99.90;;;;;;4871737;29;20284;-79
2022/11/23 03:29:20;;;;;;;12.87;11.87;;;2.60;99.90;;;;;;4874586;29;20540;-80
2022/11/23 03:31:47;;;;;;;12.53;11.60;;;2.60;99.90;;;;;;4869881;29;20661;-79
2022/11/23 03:34:16;;;;;;;13.03;12.13;;;2.60;99.90;;;;;;4874501;29;20209;-79
2022/11/23 03:36:46;;;;;;;11.93;11.10;;;2.70;99.90;;;;;;4872256;29;20458;-79
2022/11/23 03:39:14;;;;;;;12.10;11.30;;;2.70;99.90;;;;;;4869869;29;20453;-79
2022/11/23 03:41:52;;;;;;;13.13;12.23;;;2.60;99.90;;;;;;4871788;29;20529;-78
2022/11/23 03:44:22;;;;;;;12.30;11.50;;;2.60;99.90;;;;;;4871587;29;20469;-79
2022/11/23 03:46:50;;;;;;;12.47;11.67;;;2.60;99.90;;;;;;4872888;29;20293;-78
2022/11/23 03:49:17;;;;;;;12.27;11.27;;;2.60;99.90;;;;;;4876985;29;20208;-80
2022/11/23 03:51:46;;;;;;;12.73;11.87;;;2.60;99.90;;;;;;4873939;29;20481;-78
2022/11/23 03:54:14;;;;;;;13.30;12.30;;;2.50;99.90;;;;;;4877691;29;20450;-78
2022/11/23 03:56:41;;;;;;;12.07;11.10;;;2.40;99.90;;;;;;4875176;29;20457;-79
2022/11/23 03:59:08;;;;;;;12.20;11.40;;;2.40;99.90;;;;;;4877066;29;20213;-79
2022/11/23 04:01:35;;;;;;;12.93;11.83;;;2.30;99.90;;;;;;4878776;29;20550;-79
2022/11/23 04:04:06;;;;;;;13.37;12.37;;;2.30;99.90;;;;;;4874091;29;20464;-79
2022/11/23 04:06:39;;;;;;;13.00;11.67;;;2.30;99.90;;;;;;4871810;29;20465;-79
2022/11/23 04:09:17;;;;;;;13.33;12.20;;;2.30;99.90;;;;;;4874500;29;20457;-78
2022/11/23 04:12:03;;;;;;;12.97;11.90;;;2.30;99.90;;;;;;4879412;29;20224;-78
2022/11/23 04:14:30;;;;;;;12.80;11.97;;;2.40;99.90;;;;;;4875953;29;20848;-80
2022/11/23 04:16:59;;;;;;;12.87;11.93;;;2.40;99.90;;;;;;4873888;29;20457;-80
2022/11/23 04:19:26;;;;;;;13.20;12.20;;;2.40;99.90;;;;;;4878921;29;20206;-80
2022/11/23 04:21:52;;;;;;;13.57;12.57;;;2.40;99.90;;;;;;4872363;29;20470;-79
2022/11/23 04:24:22;;;;;;;14.60;13.50;;;2.40;99.90;;;;;;4876099;29;20813;-79
2022/11/23 04:26:51;;;;;;;14.77;13.47;;;2.50;99.90;;;;;;4873252;29;20507;-79
2022/11/23 04:29:18;;;;;;;13.60;12.50;;;2.40;99.90;;;;;;4878282;29;20458;-79
2022/11/23 04:31:51;;;;;;;12.80;12.00;;;2.40;99.90;;;;;;4876400;29;20476;-79
2022/11/23 04:34:19;;;;;;;13.10;12.20;;;2.40;99.90;;;;;;4880307;29;20461;-79
2022/11/23 04:36:48;;;;;;;13.40;12.27;;;2.50;99.90;;;;;;4880944;29;20541;-78
2022/11/23 04:39:15;;;;;;;13.83;12.70;;;2.40;99.90;;;;;;4880481;29;20450;-80
2022/11/23 04:41:58;;;;;;;13.30;12.40;;;2.40;99.90;;;;;;4881353;29;20228;-79
2022/11/23 04:44:25;;;;;;;14.97;13.57;;;2.40;99.90;;;;;;4873229;29;20870;-80
2022/11/23 04:46:58;;;;;;;14.03;12.77;;;2.30;99.90;;;;;;4871973;29;20450;-80
2022/11/23 04:49:26;;;;;;;14.20;13.00;;;2.30;99.90;;;;;;4878685;29;20469;-79
2022/11/23 04:51:53;;;;;;;14.33;13.13;;;2.30;99.90;;;;;;4876423;29;20992;-80
2022/11/23 04:54:23;;;;;;;14.37;13.07;;;2.30;99.90;;;;;;4879939;29;20552;-79
2022/11/23 04:56:57;;;;;;;13.70;12.70;;;2.30;99.90;;;;;;4877858;29;20523;-80
2022/11/23 04:59:24;;;;;;;14.93;13.70;;;2.30;99.90;;;;;;4871868;29;20958;-79
2022/11/23 05:01:51;;;;;;;15.60;14.30;;;2.30;99.90;;;;;;4872198;29;20489;-80
2022/11/23 05:04:44;;;;;;;14.90;13.60;;;2.30;99.90;;;;;;4873172;29;20236;-79
2022/11/23 05:07:12;;;;;;;14.60;13.40;;;2.30;99.90;;;;;;4875441;29;20595;-79
2022/11/23 05:09:42;;;;;;;15.03;13.73;;;2.30;99.90;;;;;;4872444;29;20199;-80
2022/11/23 05:12:15;;;;;;;14.73;13.43;;;2.30;99.90;;;;;;4871672;29;20497;-80
2022/11/23 05:14:42;;;;;;;14.70;13.50;;;2.20;99.90;;;;;;4874790;29;20466;-80
2022/11/23 05:17:11;;;;;;;14.13;12.93;;;2.20;99.90;;;;;;4892992;29;20460;-80
2022/11/23 05:19:40;;;;;;;14.60;13.27;;;2.20;99.90;;;;;;4870462;29;20473;-79
2022/11/23 05:22:07;;;;;;;14.83;13.53;;;2.20;99.90;;;;;;4876371;29;20465;-80
2022/11/23 05:24:36;;;;;;;15.20;13.90;;;2.20;99.90;;;;;;4872574;29;20463;-80
2022/11/23 05:27:08;;;;;;;14.57;13.37;;;2.20;99.90;;;;;;4869940;29;20625;-80
2022/11/23 05:29:37;;;;;;;14.27;13.13;;;2.20;99.90;;;;;;4880638;29;20482;-80
2022/11/23 05:32:06;;;;;;;15.23;13.80;;;2.10;99.90;;;;;;4867911;29;20478;-80
2022/11/23 05:34:33;;;;;;;15.23;13.83;;;2.10;99.90;;;;;;4875458;29;20470;-80
2022/11/23 05:37:02;;;;;;;14.80;13.70;;;2.10;99.90;;;;;;4876961;29;20551;-80
2022/11/23 05:39:29;;;;;;;14.37;13.23;;;2.00;99.90;;;;;;4895132;29;20478;-80
2022/11/23 05:41:56;;;;;;;14.30;13.20;;;2.00;99.90;;;;;;4870600;29;20232;-79
2022/11/23 05:44:33;;;;;;;14.50;13.47;;;1.90;99.90;;;;;;4885818;29;20520;-82
2022/11/23 05:47:01;;;;;;;14.60;13.60;;;1.80;99.90;;;;;;4878124;29;20517;-82
2022/11/23 05:49:31;;;;;;;14.27;13.27;;;1.80;99.90;;;;;;4866979;29;21044;-82
2022/11/23 05:51:58;;;;;;;15.47;14.13;;;1.80;99.90;;;;;;4877923;29;20580;-80
2022/11/23 05:54:26;;;;;;;14.80;13.80;;;1.80;99.90;;;;;;4867152;29;20513;-80
2022/11/23 05:57:21;;;;;;;15.07;13.70;;;1.80;99.90;;;;;;4876919;29;20479;-82
2022/11/23 05:59:49;;;;;;;15.77;14.43;;;1.80;99.90;;;;;;4870272;29;20509;-81
2022/11/23 06:02:30;;;;;;;15.30;14.10;;;1.70;99.90;;;;;;4871988;29;20466;-82
2022/11/23 06:05:02;;;;;;;15.03;13.77;;;1.70;99.90;;;;;;4867690;29;20488;-81
2022/11/23 06:07:38;;;;;;;14.97;13.90;;;1.70;99.90;;;;;;4867943;29;20502;-81
2022/11/23 06:10:12;;;;;;;14.47;13.50;;;1.60;99.90;;;;;;4877085;29;20457;-81
2022/11/23 06:12:41;;;;;;;15.50;14.13;;;1.60;99.90;;;;;;4873994;29;20236;-80
2022/11/23 06:15:13;;;;;;;15.30;14.10;;;1.60;99.90;;;;;;4878974;29;20471;-81
2022/11/23 06:17:42;;;;;;;15.60;14.40;;;1.50;99.90;;;;;;4869462;29;20478;-82
2022/11/23 06:20:14;;;;;;;15.47;14.37;;;1.50;99.90;;;;;;4877573;29;20876;-81
2022/11/23 06:22:51;;;;;;;14.70;13.53;;;1.40;99.90;;;;;;4877782;29;20500;-80
2022/11/23 06:25:18;;;;;;;15.40;14.30;;;1.50;99.90;;;;;;4876594;29;20858;-80
2022/11/23 06:27:55;;;;;;;15.40;14.23;;;1.50;99.90;;;;;;4875231;29;20984;-80
2022/11/23 06:30:27;;;;;;;16.30;15.10;;;1.60;99.90;;;;;;4866095;29;20456;-81
2022/11/23 06:33:01;;;;;;;16.70;14.37;;;1.50;99.90;;;;;;4878707;29;20604;-80
2022/11/23 06:35:29;;;;;;;16.07;14.53;;;1.50;99.90;;;;;;4876446;29;20456;-81
2022/11/23 06:37:56;;;;;;;16.00;14.70;;;1.50;99.90;;;;;;4874783;29;20862;-81
2022/11/23 06:40:23;;;;;;;15.37;14.17;;;1.50;99.90;;;;;;4877322;29;20535;-81
2022/11/23 06:42:52;;;;;;;15.60;14.20;;;1.50;99.90;;;;;;4877148;29;20525;-81
2022/11/23 06:45:27;;;;;;;14.87;13.87;;;1.50;99.90;;;;;;4873663;29;20599;-80
2022/11/23 06:47:56;;;;;;;15.27;14.07;;;1.60;99.90;;;;;;4878638;29;20476;-81
2022/11/23 06:50:25;;;;;;;15.03;13.83;;;1.60;99.90;;;;;;4867255;29;20452;-81
2022/11/23 06:52:55;;;;;;;15.10;13.70;;;1.60;99.90;;;;;;4879375;29;21079;-80
2022/11/23 06:55:29;;;;;;;14.43;13.40;;;1.60;99.90;;;;;;4879430;29;20457;-81
2022/11/23 06:57:57;;;;;;;15.67;14.37;;;1.60;99.90;;;;;;4866738;29;20463;-81
2022/11/23 07:00:24;;;;;;;15.50;14.20;;;1.60;99.90;;;;;;4877940;29;20448;-81
2022/11/23 07:02:52;;;;;;;16.20;14.57;;;1.70;99.90;;;;;;4869040;29;20448;-81
2022/11/23 07:05:21;;;;;;;14.80;13.73;;;1.70;99.90;;;;;;4873753;29;20460;-81
2022/11/23 07:07:49;;;;;;;14.90;13.80;;;1.70;99.90;;;;;;4870720;29;20553;-82
2022/11/23 07:10:24;;;;;;;15.97;14.40;;;1.80;99.90;;;;;;4874809;29;20464;-82
2022/11/23 07:12:55;;;;;;;15.27;14.07;;;1.90;99.90;;;;;;4869786;29;20500;-81
2022/11/23 07:15:23;;;;;;;15.97;14.67;;;2.00;99.90;;;;;;4876209;29;20847;-79
2022/11/23 07:17:52;;;;;;;15.60;14.17;;;2.00;99.90;;;;;;4867012;29;20485;-79
2022/11/23 07:20:21;;;;;;;16.00;14.67;;;2.00;99.90;;;;;;4875186;29;20520;-79
2022/11/23 07:22:59;;;;;;;15.47;14.20;;;2.00;99.90;;;;;;4864160;29;20478;-79
2022/11/23 07:25:26;;;;;;;15.93;14.63;;;2.00;99.90;;;;;;4873781;29;20455;-81
2022/11/23 07:27:55;;;;;;;15.00;13.57;;;2.00;99.90;;;;;;4879462;29;20443;-79
2022/11/23 07:30:23;;;;;;;15.43;14.27;;;2.00;99.90;;;;;;4866259;29;20485;-80
2022/11/23 07:32:49;;;;;;;15.67;14.47;;;2.00;99.90;;;;;;4878465;29;20996;-79
2022/11/23 07:35:17;;;;;;;16.30;14.90;;;2.10;99.90;;;;;;4868033;29;20662;-79
2022/11/23 07:37:45;;;;;;;15.20;13.97;;;2.20;99.90;;;;;;4869048;29;20882;-80
2022/11/23 07:40:14;;;;;;;14.73;13.63;;;2.30;99.90;;;;;;4875723;29;20452;-80
2022/11/23 07:42:41;;;;;;;14.40;13.30;;;2.40;99.90;;;;;;4870752;29;20479;-80
2022/11/23 07:45:08;;;;;;;14.13;13.13;;;2.60;99.90;;;;;;4874440;29;20449;-79
2022/11/23 07:47:38;;;;;;;14.17;13.10;;;2.70;99.90;;;;;;4878005;29;20461;-79
2022/11/23 07:50:06;;;;;;;14.70;13.50;;;3.00;99.90;;;;;;4869887;29;20477;-79
2022/11/23 07:52:34;;;;;;;13.77;12.77;;;3.10;99.90;;;;;;4871127;29;20469;-79
2022/11/23 07:55:01;;;;;;;13.77;12.77;;;3.20;99.90;;;;;;4871268;29;20236;-79
2022/11/23 07:57:29;;;;;;;14.50;13.30;;;3.40;99.90;;;;;;4873166;29;20198;-79
2022/11/23 07:59:56;;;;;;;14.20;13.10;;;3.50;99.90;;;;;;4877474;29;20224;-80
2022/11/23 08:02:23;;;;;;;13.60;12.60;;;3.70;99.90;;;;;;4873235;29;20253;-80
2022/11/23 08:04:50;;;;;;;14.37;13.17;;;3.80;99.90;;;;;;4878763;29;20666;-80
2022/11/23 08:07:17;;;;;;;14.37;13.17;;;4.00;99.90;;;;;;4871810;29;20237;-79
2022/11/23 08:09:44;;;;;;;14.87;13.60;;;4.30;99.90;;;;;;4863717;29;20201;-79
2022/11/23 08:12:11;;;;;;;14.83;13.63;;;4.50;99.90;;;;;;4864267;29;20220;-78
2022/11/23 08:14:39;;;;;;;14.00;13.00;;;4.70;99.90;;;;;;4864971;29;20227;-77
2022/11/23 08:17:06;;;;;;;15.17;13.80;;;4.90;99.90;;;;;;4863990;29;20197;-77
2022/11/23 08:19:32;;;;;;;14.00;12.70;;;5.00;99.90;;;;;;4865339;29;20210;-77
2022/11/23 08:21:59;;;;;;;14.60;13.27;;;5.20;99.90;;;;;;4879616;29;20216;-77
2022/11/23 08:24:26;;;;;;;14.07;12.97;;;5.40;99.90;;;;;;4875811;29;20193;-78
2022/11/23 08:26:53;;;;;;;13.73;12.67;;;5.60;99.90;;;;;;4870306;29;20202;-78
2022/11/23 08:29:20;;;;;;;13.90;12.80;;;5.80;99.90;;;;;;4879149;29;20199;-79
2022/11/23 08:31:48;;;;;;;14.13;13.03;;;5.90;99.90;;;;;;4876255;29;20222;-79
2022/11/23 08:34:17;;;;;;;13.27;12.37;;;6.00;99.90;;;;;;4873703;29;20227;-79
2022/11/23 08:36:44;;;;;;;13.93;12.83;;;6.20;99.90;;;;;;4874007;29;20198;-79
2022/11/23 08:39:13;;;;;;;11.40;10.67;;;6.20;99.90;;;;;;4876072;29;20612;-78
2022/11/23 08:41:40;;;;;;;5.10;4.27;;;6.30;99.90;;;;;;4873714;29;20231;-80
2022/11/23 08:44:08;;;;;;;4.40;4.00;;;6.30;99.90;;;;;;4870288;29;20204;-80
2022/11/23 08:46:35;;;;;;;5.37;4.00;;;6.40;99.90;;;;;;4876063;29;20211;-79
2022/11/23 08:49:04;;;;;;;4.50;4.10;;;6.50;99.90;;;;;;4874631;29;20226;-79
2022/11/23 08:51:31;;;;;;;5.77;4.20;;;6.50;99.90;;;;;;4874105;29;20227;-79
2022/11/23 08:53:58;;;;;;;5.67;4.03;;;6.50;99.90;;;;;;4870138;29;20617;-79
2022/11/23 08:56:25;;;;;;;6.47;3.90;;;6.50;99.90;;;;;;4880952;29;20313;-79
2022/11/23 08:58:51;;;;;;;5.17;3.77;;;6.40;99.90;;;;;;4867427;29;20290;-78
2022/11/23 09:01:18;;;;;;;5.83;4.50;;;6.40;99.90;;;;;;4876800;29;20735;-79
2022/11/23 09:03:45;;;;;;;8.37;7.33;;;6.40;99.90;;;;;;4880374;29;20200;-79
2022/11/23 09:06:13;;;;;;;9.67;8.93;;;6.30;99.90;;;;;;4872742;29;20668;-79
2022/11/23 09:08:40;;;;;;;5.33;4.83;;;6.30;99.90;;;;;;4878933;29;20203;-80
2022/11/23 09:11:09;;;;;;;6.50;5.03;;;6.20;99.90;;;;;;4879717;29;20276;-80
2022/11/23 09:13:37;;;;;;;9.67;8.90;;;6.20;99.90;;;;;;4879773;29;20634;-80
2022/11/23 09:16:06;;;;;;;6.70;5.70;;;6.20;99.90;;;;;;4881844;29;20213;-79
2022/11/23 09:18:34;;;;;;;6.47;5.87;;;6.20;99.90;;;;;;4873643;29;20205;-79
2022/11/23 09:21:03;;;;;;;11.17;10.27;;;6.20;99.90;;;;;;4871581;29;20243;-79
2022/11/23 09:23:31;;;;;;;9.00;8.30;;;6.20;99.90;;;;;;4873155;29;20304;-80
2022/11/23 09:25:59;;;;;;;7.43;6.73;;;6.30;99.90;;;;;;4875682;29;20212;-80
2022/11/23 09:28:26;;;;;;;9.07;6.97;;;6.30;99.90;;;;;;4873342;29;20195;-80
2022/11/23 09:30:54;;;;;;;10.23;9.20;;;6.30;99.90;;;;;;4869922;29;20220;-80
2022/11/23 09:33:21;;;;;;;11.33;10.33;;;6.30;99.90;;;;;;4877783;29;20303;-80
2022/11/23 09:35:55;;;;;;;5.33;4.57;;;6.30;99.90;;;;;;4875860;29;20204;-79
2022/11/23 09:38:22;;;;;;;7.60;7.00;;;6.40;99.90;;;;;;4872754;29;20214;-80
2022/11/23 09:40:59;;;;;;;7.90;7.30;;;6.50;99.90;;;;;;4871428;29;20236;-80
2022/11/23 09:43:38;;;;;;;4.80;4.40;;;6.50;99.90;;;;;;4877062;29;20193;-80
2022/11/23 09:46:13;;;;;;;7.23;4.60;;;6.50;99.90;;;;;;4873033;29;20217;-80
2022/11/23 09:49:10;;;;;;;10.23;9.33;;;6.60;99.90;;;;;;4871924;29;20211;-80
2022/11/23 09:51:39;;;;;;;4.37;4.07;;;6.60;99.90;;;;;;4871064;29;20609;-80
2022/11/23 09:54:14;;;;;;;5.47;4.80;;;6.70;99.90;;;;;;4878600;29;20239;-80
2022/11/23 09:56:45;;;;;;;4.20;3.80;;;6.70;99.90;;;;;;4879411;29;20198;-79
2022/11/23 09:59:18;;;;;;;6.57;5.90;;;6.80;99.90;;;;;;4877302;29;20297;-80
2022/11/23 10:01:45;;;;;;;3.57;3.00;;;6.90;99.90;;;;;;4875559;29;20727;-80
2022/11/23 10:04:17;;;;;;;3.50;3.13;;;6.90;99.90;;;;;;4879460;29;20202;-80
2022/11/23 10:06:45;;;;;;;3.27;2.97;;;6.90;99.90;;;;;;4878451;29;20230;-80
2022/11/23 10:09:28;;;;;;;3.27;2.97;;;7.00;99.90;;;;;;4871421;29;20208;-80
2022/11/23 10:12:06;;;;;;;4.53;3.70;;;7.00;99.90;;;;;;4872133;29;20227;-80
2022/11/23 10:14:54;;;;;;;7.23;4.17;;;7.00;99.90;;;;;;4874475;29;20212;-80
2022/11/23 10:17:47;;;;;;;4.17;3.20;;;7.00;99.90;;;;;;4875092;29;20219;-79
2022/11/23 10:20:44;;;;;;;3.20;2.90;;;7.10;99.90;;;;;;4872012;29;20208;-80
2022/11/23 10:23:17;;;;;;;3.40;3.10;;;7.10;99.90;;;;;;4871114;29;20718;-80
2022/11/23 10:25:48;;;;;;;5.73;3.20;;;7.20;99.90;;;;;;4867054;29;20271;-80
2022/11/23 10:28:18;;;;;;;3.97;3.57;;;7.20;99.90;;;;;;4869483;29;20240;-80
2022/11/23 10:30:48;;;;;;;4.20;3.80;;;7.30;99.90;;;;;;4879861;29;20223;-80
2022/11/23 10:33:23;;;;;;;4.20;3.67;;;7.30;99.90;;;;;;4869324;29;20688;-80
2022/11/23 10:35:50;;;;;;;3.80;3.30;;;7.30;99.90;;;;;;4873937;29;20215;-80
2022/11/23 10:38:18;;;;;;;10.57;9.87;;;7.20;99.90;;;;;;4877789;29;20207;-80
2022/11/23 10:40:54;;;;;;;3.90;3.50;;;7.10;99.90;;;;;;4873717;29;20236;-79
2022/11/23 10:43:25;;;;;;;8.30;7.70;;;7.00;99.90;;;;;;4876536;29;20220;-79
2022/11/23 10:46:13;;;;;;;6.17;5.67;;;7.00;99.90;;;;;;4872989;29;20205;-80
2022/11/23 10:48:40;;;;;;;10.20;9.50;;;7.10;99.90;;;;;;4871831;29;20208;-80
2022/11/23 10:51:16;;;;;;;6.37;5.97;;;7.00;99.90;;;;;;4875512;29;20232;-80
2022/11/23 10:53:44;;;;;;;7.17;6.57;;;7.10;99.90;;;;;;4872157;29;20223;-79
2022/11/23 10:56:13;;;;;;;10.87;10.10;;;7.00;99.90;;;;;;4877552;29;20212;-79
2022/11/23 10:58:46;;;;;;;11.00;10.30;;;7.00;99.90;;;;;;4873149;29;20305;-80
2022/11/23 11:01:16;;;;;;;5.10;4.60;;;7.00;99.90;;;;;;4870342;29;20760;-79
2022/11/23 11:03:42;;;;;;;6.63;6.13;;;7.10;99.90;;;;;;4870330;29;20215;-79
2022/11/23 11:06:10;;;;;;;7.43;6.83;;;7.10;99.90;;;;;;4877528;29;20211;-79
2022/11/23 11:08:49;;;;;;;6.17;4.27;;;7.10;99.90;;;;;;4873439;29;20213;-79
2022/11/23 11:11:23;;;;;;;11.03;10.23;;;7.20;99.90;;;;;;4870323;29;20218;-79
2022/11/23 11:14:01;;;;;;;11.50;10.50;;;7.20;99.90;;;;;;4877980;29;20224;-80
2022/11/23 11:16:31;;;;;;;12.57;11.47;;;7.20;99.90;;;;;;4872328;29;20228;-80
2022/11/23 11:18:58;;;;;;;5.20;4.63;;;7.30;99.90;;;;;;4876015;29;20207;-79
2022/11/23 11:21:32;;;;;;;6.73;6.17;;;7.30;99.90;;;;;;4872510;29;20228;-79
2022/11/23 11:24:02;;;;;;;5.17;4.17;;;7.30;99.90;;;;;;4872693;29;20652;-79
2022/11/23 11:26:30;;;;;;;4.53;4.20;;;7.40;99.90;;;;;;4873339;29;20234;-79
2022/11/23 11:29:01;;;;;;;6.20;5.70;;;7.40;99.90;;;;;;4872141;29;20272;-79
2022/11/23 11:31:43;;;;;;;3.40;3.10;;;7.50;99.90;;;;;;4870130;29;20690;-80
2022/11/23 11:34:17;;;;;;;3.47;3.10;;;7.50;99.90;;;;;;4875504;29;20211;-79
2022/11/23 11:36:49;;;;;;;5.40;3.10;;;7.60;99.90;;;;;;4877025;29;20196;-79
2022/11/23 11:39:22;;;;;;;3.47;3.10;;;7.60;99.90;;;;;;4879967;29;20222;-80
2022/11/23 11:41:52;;;;;;;3.43;3.10;;;7.60;99.90;;;;;;4878620;29;20248;-79
2022/11/23 11:44:23;;;;;;;5.63;5.13;;;7.70;99.90;;;;;;4877998;29;20200;-79
2022/11/23 11:46:57;;;;;;;4.97;4.57;;;7.80;99.90;;;;;;4869472;29;20696;-79
2022/11/23 11:49:29;;;;;;;6.57;6.07;;;7.80;99.90;;;;;;4885110;29;20243;-80
2022/11/23 11:52:03;;;;;;;4.77;3.97;;;7.80;99.90;;;;;;4880823;29;20237;-79
2022/11/23 11:54:38;;;;;;;3.93;3.53;;;7.90;99.90;;;;;;4872855;29;20719;-80
2022/11/23 11:57:11;;;;;;;4.90;4.43;;;8.00;99.90;;;;;;4875018;29;20685;-79
2022/11/23 11:59:43;;;;;;;6.80;4.80;;;8.00;99.90;;;;;;4875361;29;20227;-80
2022/11/23 12:02:18;;;;;;;5.70;5.30;;;8.10;99.90;;;;;;4880964;29;20236;-80
2022/11/23 12:04:54;;;;;;;7.67;7.07;;;8.10;99.90;;;;;;4877475;29;20197;-79
2022/11/23 12:07:28;;;;;;;11.17;10.47;;;8.10;99.90;;;;;;4878915;29;20683;-79
2022/11/23 12:10:02;;;;;;;6.90;6.50;;;8.20;99.90;;;;;;4877842;29;20211;-79
2022/11/23 12:12:31;;;;;;;8.10;7.60;;;8.20;99.90;;;;;;4875363;29;20221;-80
2022/11/23 12:14:59;;;;;;;11.20;10.50;;;8.20;99.90;;;;;;4874060;29;20273;-79
2022/11/23 12:17:46;;;;;;;10.40;9.80;;;8.30;99.90;;;;;;4877415;29;20742;-78
2022/11/23 12:20:20;;;;;;;11.53;10.43;;;8.40;99.90;;;;;;4878057;29;20284;-79
2022/11/23 12:23:00;;;;;;;11.43;10.60;;;8.40;99.90;;;;;;4876575;29;20591;-78
2022/11/23 12:25:35;;;;;;;11.40;10.60;;;8.50;99.90;;;;;;4881705;29;20205;-79
2022/11/23 12:28:15;;;;;;;11.70;10.90;;;8.50;99.90;;;;;;4879407;29;20662;-79
2022/11/23 12:30:55;;;;;;;10.70;9.90;;;8.50;99.90;;;;;;4881262;29;20240;-78
2022/11/23 12:33:56;;;;;;;10.30;9.70;;;8.60;99.90;;;;;;4876555;29;20221;-79
2022/11/23 12:36:57;;;;;;;11.67;10.60;;;8.70;99.90;;;;;;4873522;29;20216;-80
2022/11/23 12:40:10;;;;;;;11.33;10.53;;;8.70;99.90;;;;;;4875888;29;20208;-79
2022/11/23 12:42:42;;;;;;;11.37;10.60;;;8.80;99.90;;;;;;4880694;29;20640;-78
2022/11/23 12:45:22;;;;;;;11.57;10.67;;;8.80;99.90;;;;;;4879944;29;20629;-79
2022/11/23 12:48:03;;;;;;;11.03;10.23;;;8.80;99.90;;;;;;4877660;29;20277;-79
2022/11/23 12:50:35;;;;;;;10.40;9.70;;;8.80;99.90;;;;;;4873205;29;20212;-80
2022/11/23 12:53:24;;;;;;;9.83;9.23;;;8.80;99.90;;;;;;4875745;29;20209;-79
2022/11/23 12:56:01;;;;;;;10.93;10.03;;;8.90;99.90;;;;;;4877325;29;20640;-79
2022/11/23 12:58:29;;;;;;;10.57;9.73;;;8.80;99.90;;;;;;4876393;29;20206;-80
2022/11/23 13:01:01;;;;;;;9.83;9.20;;;8.90;99.90;;;;;;4877667;29;20241;-79
2022/11/23 13:04:00;;;;;;;10.90;10.10;;;8.90;99.90;;;;;;4878023;29;20206;-80
2022/11/23 13:07:09;;;;;;;10.27;9.50;;;8.90;99.90;;;;;;4877295;29;20209;-79
2022/11/23 13:10:05;;;;;;;10.10;9.50;;;8.90;99.90;;;;;;4890167;29;20205;-80
2022/11/23 13:12:50;;;;;;;10.40;9.40;;;9.00;99.90;;;;;;4876392;29;20627;-78
2022/11/23 13:15:35;;;;;;;10.00;9.27;;;9.00;99.90;;;;;;4874901;29;20221;-78
2022/11/23 13:18:10;;;;;;;10.30;9.50;;;9.00;99.90;;;;;;4875087;29;20220;-81
2022/11/23 13:21:01;;;;;;;9.57;8.80;;;9.00;99.90;;;;;;4880529;29;20215;-81
2022/11/23 13:23:28;;;;;;;10.37;9.57;;;8.90;99.90;;;;;;4873909;29;20198;-79
2022/11/23 13:26:16;;;;;;;9.90;9.10;;;8.90;99.90;;;;;;4872728;29;20673;-80
2022/11/23 13:28:43;;;;;;;9.90;9.20;;;8.90;99.90;;;;;;4871502;29;20292;-79
2022/11/23 13:31:23;;;;;;;9.53;8.83;;;8.90;99.90;;;;;;4876741;29;20228;-79
2022/11/23 13:33:52;;;;;;;10.10;9.40;;;8.90;99.90;;;;;;4874446;29;20634;-79
2022/11/23 13:36:41;;;;;;;10.20;9.47;;;8.90;99.90;;;;;;4872684;29;20218;-79
2022/11/23 13:39:54;;;;;;;10.30;9.60;;;8.90;99.90;;;;;;4871848;29;20308;-79
2022/11/23 13:42:24;;;;;;;10.67;10.00;;;8.90;99.90;;;;;;4872188;29;20236;-79
2022/11/23 13:45:26;;;;;;;10.47;9.77;;;8.90;99.90;;;;;;4876059;29;20234;-79
2022/11/23 13:48:18;;;;;;;10.10;9.50;;;8.90;99.90;;;;;;4874828;29;20204;-79
2022/11/23 13:51:00;;;;;;;10.60;9.70;;;8.90;99.90;;;;;;4872965;29;20236;-79
2022/11/23 13:53:31;;;;;;;10.47;9.83;;;8.90;99.90;;;;;;4871234;29;20201;-79
2022/11/23 13:56:14;;;;;;;10.00;9.37;;;8.80;99.90;;;;;;4878440;29;20239;-79
2022/11/23 13:58:51;;;;;;;10.90;10.00;;;8.80;99.90;;;;;;4872479;29;20208;-79
2022/11/23 14:01:52;;;;;;;10.80;10.00;;;8.80;99.90;;;;;;4873264;29;20260;-79
2022/11/23 14:04:21;;;;;;;10.30;9.70;;;8.80;99.90;;;;;;4876872;29;20663;-79
2022/11/23 14:06:51;;;;;;;10.33;9.73;;;8.70;99.90;;;;;;4872218;29;20209;-79
2022/11/23 14:09:24;;;;;;;10.30;9.70;;;8.80;99.90;;;;;;4871220;29;20213;-79
2022/11/23 14:12:01;;;;;;;10.47;9.77;;;8.80;99.90;;;;;;4868875;29;20225;-79
2022/11/23 14:14:40;;;;;;;11.10;10.40;;;8.70;99.90;;;;;;4876820;29;20201;-79
2022/11/23 14:17:49;;;;;;;10.97;10.17;;;8.80;99.90;;;;;;4879301;29;20197;-80
2022/11/23 14:20:41;;;;;;;10.80;9.90;;;8.80;99.90;;;;;;4846479;29;20226;-79
2022/11/23 14:23:44;;;;;;;10.40;9.70;;;8.70;99.90;;;;;;4869825;29;20208;-79
2022/11/23 14:26:29;;;;;;;10.83;10.03;;;8.70;99.90;;;;;;4871265;29;20268;-79
2022/11/23 14:29:15;;;;;;;10.13;9.50;;;8.60;99.90;;;;;;4868707;29;20214;-79
2022/11/23 14:31:58;;;;;;;10.10;9.50;;;8.60;99.90;;;;;;4868656;29;20218;-79
2022/11/23 14:34:35;;;;;;;10.17;9.47;;;8.60;99.90;;;;;;4879796;29;20215;-79
2022/11/23 14:37:10;;;;;;;10.40;9.70;;;8.50;99.90;;;;;;4874441;29;20229;-78
2022/11/23 14:39:55;;;;;;;10.00;9.40;;;8.50;99.90;;;;;;4876662;29;20207;-79
2022/11/23 14:42:25;;;;;;;10.00;9.30;;;8.40;99.90;;;;;;4866912;29;20232;-78
2022/11/23 14:44:53;;;;;;;10.37;9.67;;;8.40;99.90;;;;;;4879160;29;20642;-79
2022/11/23 14:47:28;;;;;;;9.87;9.23;;;8.40;99.90;;;;;;4870921;29;20212;-79
2022/11/23 14:49:55;;;;;;;10.50;9.80;;;8.30;99.90;;;;;;4870195;29;20205;-80
2022/11/23 14:52:24;;;;;;;11.00;10.30;;;8.20;99.90;;;;;;4871896;29;20744;-79
2022/11/23 14:54:53;;;;;;;10.83;9.80;;;8.20;99.90;;;;;;4873113;29;20228;-78
2022/11/23 14:57:21;;;;;;;10.80;10.00;;;8.10;99.90;;;;;;4876159;29;20212;-77
2022/11/23 14:59:52;;;;;;;10.60;9.90;;;8.00;99.90;;;;;;4872705;29;20236;-80
2022/11/23 15:02:22;;;;;;;10.47;9.87;;;8.00;99.90;;;;;;4877103;29;20244;-81
2022/11/23 15:05:01;;;;;;;10.77;10.17;;;7.90;99.90;;;;;;4874058;29;20220;-80
2022/11/23 15:07:39;;;;;;;10.50;9.90;;;7.90;99.90;;;;;;4869175;29;20220;-80
2022/11/23 15:10:16;;;;;;;10.73;9.93;;;7.80;99.90;;;;;;4874021;29;20223;-79
2022/11/23 15:12:45;;;;;;;10.57;9.90;;;7.70;99.90;;;;;;4875122;29;20235;-83
2022/11/23 15:15:19;;;;;;;9.60;9.00;;;7.70;99.90;;;;;;4873490;29;20231;-79
2022/11/23 15:17:53;;;;;;;9.50;8.90;;;7.60;99.90;;;;;;4880108;29;20282;-78
2022/11/23 15:20:24;;;;;;;10.00;9.40;;;7.50;99.90;;;;;;4869013;29;20832;-79
2022/11/23 15:22:51;;;;;;;10.40;9.70;;;7.40;99.90;;;;;;4874184;29;20198;-79
2022/11/23 15:25:18;;;;;;;10.47;9.87;;;7.40;99.90;;;;;;4879960;29;20200;-79
2022/11/23 15:27:47;;;;;;;10.60;9.90;;;7.40;99.90;;;;;;4871009;29;20203;-79
2022/11/23 15:30:16;;;;;;;10.70;10.00;;;7.30;99.90;;;;;;4877444;29;20265;-81
2022/11/23 15:32:43;;;;;;;10.87;10.07;;;7.20;99.90;;;;;;4874403;29;20232;-79
2022/11/23 15:35:14;;;;;;;10.13;9.53;;;7.20;99.90;;;;;;4871387;29;20218;-80
2022/11/23 15:37:45;;;;;;;10.37;9.67;;;7.20;99.90;;;;;;4872703;29;20204;-80
2022/11/23 15:40:13;;;;;;;10.23;9.63;;;7.10;99.90;;;;;;4874267;29;20209;-80
2022/11/23 15:42:41;;;;;;;10.97;10.27;;;7.10;99.90;;;;;;4877932;29;20228;-80
2022/11/23 15:45:42;;;;;;;10.40;9.60;;;7.10;99.90;;;;;;4877643;29;20205;-79
2022/11/23 15:48:14;;;;;;;10.60;9.90;;;7.10;99.90;;;;;;4873881;29;20208;-78
2022/11/23 15:50:50;;;;;;;9.93;9.27;;;7.00;99.90;;;;;;4872249;29;20644;-77
2022/11/23 15:53:20;;;;;;;10.10;9.50;;;7.00;99.90;;;;;;4872366;29;20215;-77
2022/11/23 15:55:47;;;;;;;10.70;9.90;;;7.10;99.90;;;;;;4875870;29;20239;-77
2022/11/23 15:58:17;;;;;;;10.43;9.73;;;7.10;99.90;;;;;;4875833;29;20207;-79
2022/11/23 16:00:50;;;;;;;11.23;10.43;;;7.10;99.90;;;;;;4873001;29;20209;-78
2022/11/23 16:03:36;;;;;;;11.10;10.30;;;7.10;99.90;;;;;;4870553;29;20213;-78
2022/11/23 16:06:16;;;;;;;11.37;10.53;;;7.10;99.90;;;;;;4868550;29;20208;-76
2022/11/23 16:08:45;;;;;;;11.13;10.33;;;7.10;99.90;;;;;;4873646;29;20212;-80
2022/11/23 16:11:34;;;;;;;11.27;10.17;;;7.10;99.90;;;;;;4871194;29;20228;-80
2022/11/23 16:14:13;;;;;;;10.73;9.90;;;7.20;99.90;;;;;;4869885;29;20212;-80